sensor_id;sensor_type;location;lat;lon;timestamp;pressure;altitude;pressure_sealevel;temperature;humidity
78685;BME280;68002;52.310;6.990;2023-03-21T00:02:00;101248.84;;;9.44;83.11
78685;BME280;68002;52.310;6.990;2023-03-21T00:04:26;101249.78;;;9.43;83.98
78685;BME280;68002;52.310;6.990;2023-03-21T00:06:52;101255.84;;;9.45;83.20
78685;BME280;68002;52.310;6.990;2023-03-21T00:09:17;101245.31;;;9.44;83.07
78685;BME280;68002;52.310;6.990;2023-03-21T00:11:43;101242.75;;;9.53;82.84
78685;BME280;68002;52.310;6.990;2023-03-21T00:14:08;101241.03;;;9.52;82.77
78685;BME280;68002;52.310;6.990;2023-03-21T00:16:34;101241.91;;;9.53;82.55
78685;BME280;68002;52.310;6.990;2023-03-21T00:18:59;101242.88;;;9.52;83.30
78685;BME280;68002;52.310;6.990;2023-03-21T00:21:24;101232.44;;;9.49;82.84
78685;BME280;68002;52.310;6.990;2023-03-21T00:23:50;101232.22;;;9.52;83.16
78685;BME280;68002;52.310;6.990;2023-03-21T00:26:15;101235.69;;;9.52;82.53
78685;BME280;68002;52.310;6.990;2023-03-21T00:28:41;101228.69;;;9.51;83.16
78685;BME280;68002;52.310;6.990;2023-03-21T00:31:07;101228.69;;;9.51;82.91
78685;BME280;68002;52.310;6.990;2023-03-21T00:33:34;101224.31;;;9.50;83.53
78685;BME280;68002;52.310;6.990;2023-03-21T00:36:00;101220.53;;;9.53;82.63
78685;BME280;68002;52.310;6.990;2023-03-21T00:38:26;101227.09;;;9.49;83.46
78685;BME280;68002;52.310;6.990;2023-03-21T00:40:51;101223.34;;;9.51;83.38
78685;BME280;68002;52.310;6.990;2023-03-21T00:43:17;101222.47;;;9.51;82.95
78685;BME280;68002;52.310;6.990;2023-03-21T00:45:43;101216.06;;;9.53;83.22
78685;BME280;68002;52.310;6.990;2023-03-21T00:48:09;101212.53;;;9.53;83.35
78685;BME280;68002;52.310;6.990;2023-03-21T00:50:35;101216.66;;;9.57;82.71
78685;BME280;68002;52.310;6.990;2023-03-21T00:53:00;101216.66;;;9.57;82.51
78685;BME280;68002;52.310;6.990;2023-03-21T00:55:26;101206.84;;;9.57;82.49
78685;BME280;68002;52.310;6.990;2023-03-21T00:57:51;101212.78;;;9.61;82.61
78685;BME280;68002;52.310;6.990;2023-03-21T01:00:17;101212.50;;;9.64;82.33
78685;BME280;68002;52.310;6.990;2023-03-21T01:02:43;101205.84;;;9.58;82.45
78685;BME280;68002;52.310;6.990;2023-03-21T01:05:10;101206.09;;;9.66;82.54
78685;BME280;68002;52.310;6.990;2023-03-21T01:07:35;101206.56;;;9.60;82.45
78685;BME280;68002;52.310;6.990;2023-03-21T01:10:01;101189.06;;;9.67;83.04
78685;BME280;68002;52.310;6.990;2023-03-21T01:12:26;101195.88;;;9.60;82.45
78685;BME280;68002;52.310;6.990;2023-03-21T01:14:51;101192.63;;;9.57;83.54
78685;BME280;68002;52.310;6.990;2023-03-21T01:17:16;101187.41;;;9.55;83.77
78685;BME280;68002;52.310;6.990;2023-03-21T01:19:42;101188.88;;;9.59;83.75
78685;BME280;68002;52.310;6.990;2023-03-21T01:22:07;101189.94;;;9.57;83.76
78685;BME280;68002;52.310;6.990;2023-03-21T01:24:32;101190.09;;;9.55;83.71
78685;BME280;68002;52.310;6.990;2023-03-21T01:26:57;101187.16;;;9.58;83.16
78685;BME280;68002;52.310;6.990;2023-03-21T01:29:22;101189.69;;;9.60;83.44
78685;BME280;68002;52.310;6.990;2023-03-21T01:31:48;101181.81;;;9.58;83.40
78685;BME280;68002;52.310;6.990;2023-03-21T01:34:13;101189.34;;;9.64;83.23
78685;BME280;68002;52.310;6.990;2023-03-21T01:36:38;101187.53;;;9.65;82.51
78685;BME280;68002;52.310;6.990;2023-03-21T01:39:04;101187.88;;;9.60;82.98
78685;BME280;68002;52.310;6.990;2023-03-21T01:41:33;101181.06;;;9.67;83.46
78685;BME280;68002;52.310;6.990;2023-03-21T01:43:58;101180.34;;;9.65;83.43
78685;BME280;68002;52.310;6.990;2023-03-21T01:51:45;101176.44;;;9.69;82.29
78685;BME280;68002;52.310;6.990;2023-03-21T01:54:25;101170.38;;;9.67;82.76
78685;BME280;68002;52.310;6.990;2023-03-21T01:56:54;101171.56;;;9.74;82.75
78685;BME280;68002;52.310;6.990;2023-03-21T01:59:24;101174.38;;;9.73;82.21
78685;BME280;68002;52.310;6.990;2023-03-21T02:01:50;101166.22;;;9.74;81.76
78685;BME280;68002;52.310;6.990;2023-03-21T02:04:18;101177.44;;;9.68;82.63
78685;BME280;68002;52.310;6.990;2023-03-21T02:07:06;101157.88;;;9.68;82.73
78685;BME280;68002;52.310;6.990;2023-03-21T02:09:36;101168.28;;;9.71;82.64
78685;BME280;68002;52.310;6.990;2023-03-21T02:12:01;101158.59;;;9.70;82.60
78685;BME280;68002;52.310;6.990;2023-03-21T02:14:29;101154.34;;;9.67;82.42
78685;BME280;68002;52.310;6.990;2023-03-21T02:19:37;101154.13;;;9.70;82.25
78685;BME280;68002;52.310;6.990;2023-03-21T02:27:23;101148.06;;;9.68;82.86
78685;BME280;68002;52.310;6.990;2023-03-21T02:38:03;101134.34;;;9.62;84.21
78685;BME280;68002;52.310;6.990;2023-03-21T02:40:40;101125.09;;;9.66;83.45
78685;BME280;68002;52.310;6.990;2023-03-21T02:43:22;101127.31;;;9.61;83.36
78685;BME280;68002;52.310;6.990;2023-03-21T02:46:29;101125.59;;;9.60;83.59
78685;BME280;68002;52.310;6.990;2023-03-21T02:49:08;101123.50;;;9.63;83.45
78685;BME280;68002;52.310;6.990;2023-03-21T02:51:36;101121.09;;;9.60;83.96
78685;BME280;68002;52.310;6.990;2023-03-21T02:54:08;101114.31;;;9.56;84.67
78685;BME280;68002;52.310;6.990;2023-03-21T02:56:35;101114.31;;;9.56;84.31
78685;BME280;68002;52.310;6.990;2023-03-21T02:59:01;101108.03;;;9.57;84.03
78685;BME280;68002;52.310;6.990;2023-03-21T03:01:27;101104.22;;;9.60;84.60
78685;BME280;68002;52.310;6.990;2023-03-21T03:03:52;101103.50;;;9.58;84.64
78685;BME280;68002;52.310;6.990;2023-03-21T03:06:21;101105.09;;;9.60;84.74
78685;BME280;68002;52.310;6.990;2023-03-21T03:11:46;101108.75;;;9.59;84.93
78685;BME280;68002;52.310;6.990;2023-03-21T03:14:40;101101.81;;;9.57;85.55
78685;BME280;68002;52.310;6.990;2023-03-21T03:17:19;101102.69;;;9.57;84.75
78685;BME280;68002;52.310;6.990;2023-03-21T03:22:45;101104.22;;;9.60;86.23
78685;BME280;68002;52.310;6.990;2023-03-21T03:25:16;101106.56;;;9.53;86.30
78685;BME280;68002;52.310;6.990;2023-03-21T03:27:43;101105.25;;;9.48;86.71
78685;BME280;68002;52.310;6.990;2023-03-21T03:30:11;101098.59;;;9.42;86.81
78685;BME280;68002;52.310;6.990;2023-03-21T03:32:58;101103.34;;;9.39;86.75
78685;BME280;68002;52.310;6.990;2023-03-21T03:35:26;101095.47;;;9.37;87.29
78685;BME280;68002;52.310;6.990;2023-03-21T03:37:54;101078.59;;;9.26;86.85
78685;BME280;68002;52.310;6.990;2023-03-21T03:40:35;101095.59;;;9.36;87.02
78685;BME280;68002;52.310;6.990;2023-03-21T03:43:08;101094.13;;;9.32;87.13
78685;BME280;68002;52.310;6.990;2023-03-21T03:45:42;101093.88;;;9.35;87.29
78685;BME280;68002;52.310;6.990;2023-03-21T03:48:20;101100.28;;;9.32;87.24
78685;BME280;68002;52.310;6.990;2023-03-21T03:50:54;101098.88;;;9.28;87.66
78685;BME280;68002;52.310;6.990;2023-03-21T03:53:25;101097.75;;;9.31;87.59
78685;BME280;68002;52.310;6.990;2023-03-21T03:55:53;101095.09;;;9.31;88.12
78685;BME280;68002;52.310;6.990;2023-03-21T03:58:20;101087.59;;;9.25;88.25
78685;BME280;68002;52.310;6.990;2023-03-21T04:00:46;101089.16;;;9.27;88.58
78685;BME280;68002;52.310;6.990;2023-03-21T04:03:12;101089.53;;;9.23;88.42
78685;BME280;68002;52.310;6.990;2023-03-21T04:05:37;101082.34;;;9.23;88.48
78685;BME280;68002;52.310;6.990;2023-03-21T04:08:03;101095.47;;;9.26;88.80
78685;BME280;68002;52.310;6.990;2023-03-21T04:10:28;101088.19;;;9.28;88.31
78685;BME280;68002;52.310;6.990;2023-03-21T04:12:53;101089.16;;;9.27;87.75
78685;BME280;68002;52.310;6.990;2023-03-21T04:15:18;101080.66;;;9.33;88.22
78685;BME280;68002;52.310;6.990;2023-03-21T04:17:44;101088.66;;;9.33;87.67
78685;BME280;68002;52.310;6.990;2023-03-21T04:20:09;101075.81;;;9.27;87.94
78685;BME280;68002;52.310;6.990;2023-03-21T04:22:35;101082.59;;;9.31;87.69
78685;BME280;68002;52.310;6.990;2023-03-21T04:25:00;101076.41;;;9.31;87.53
78685;BME280;68002;52.310;6.990;2023-03-21T04:27:26;101080.53;;;9.35;87.26
78685;BME280;68002;52.310;6.990;2023-03-21T04:29:52;101077.13;;;9.33;87.39
78685;BME280;68002;52.310;6.990;2023-03-21T04:32:17;101075.06;;;9.36;87.92
78685;BME280;68002;52.310;6.990;2023-03-21T04:34:43;101076.16;;;9.34;87.68
78685;BME280;68002;52.310;6.990;2023-03-21T04:37:09;101069.97;;;9.33;87.57
78685;BME280;68002;52.310;6.990;2023-03-21T04:39:34;101069.13;;;9.33;88.03
78685;BME280;68002;52.310;6.990;2023-03-21T04:41:59;101073.38;;;9.35;87.97
78685;BME280;68002;52.310;6.990;2023-03-21T04:44:25;101068.25;;;9.32;88.20
78685;BME280;68002;52.310;6.990;2023-03-21T04:46:50;101067.44;;;9.32;88.16
78685;BME280;68002;52.310;6.990;2023-03-21T04:49:15;101065.38;;;9.24;88.69
78685;BME280;68002;52.310;6.990;2023-03-21T04:51:40;101059.31;;;9.22;88.94
78685;BME280;68002;52.310;6.990;2023-03-21T04:54:05;101053.00;;;9.23;88.43
78685;BME280;68002;52.310;6.990;2023-03-21T04:56:31;101056.91;;;9.19;89.00
78685;BME280;68002;52.310;6.990;2023-03-21T04:59:04;101058.59;;;9.20;88.76
78685;BME280;68002;52.310;6.990;2023-03-21T05:01:31;101059.59;;;9.19;89.21
78685;BME280;68002;52.310;6.990;2023-03-21T05:03:57;101061.13;;;9.22;89.71
78685;BME280;68002;52.310;6.990;2023-03-21T05:06:23;101064.53;;;9.24;89.63
78685;BME280;68002;52.310;6.990;2023-03-21T05:08:48;101051.31;;;9.22;88.98
78685;BME280;68002;52.310;6.990;2023-03-21T05:11:13;101061.50;;;9.28;88.77
78685;BME280;68002;52.310;6.990;2023-03-21T05:13:39;101059.44;;;9.32;88.99
78685;BME280;68002;52.310;6.990;2023-03-21T05:16:04;101061.59;;;9.27;88.19
78685;BME280;68002;52.310;6.990;2023-03-21T05:18:30;101058.84;;;9.28;88.62
78685;BME280;68002;52.310;6.990;2023-03-21T05:20:55;101055.31;;;9.28;88.37
78685;BME280;68002;52.310;6.990;2023-03-21T05:23:22;101058.56;;;9.31;88.10
78685;BME280;68002;52.310;6.990;2023-03-21T05:25:47;101029.25;;;9.20;88.01
78685;BME280;68002;52.310;6.990;2023-03-21T05:28:13;101059.03;;;9.36;87.30
78685;BME280;68002;52.310;6.990;2023-03-21T05:30:38;101061.34;;;9.41;87.86
78685;BME280;68002;52.310;6.990;2023-03-21T05:33:03;101060.75;;;9.37;87.36
78685;BME280;68002;52.310;6.990;2023-03-21T05:35:29;101056.22;;;9.38;87.15
78685;BME280;68002;52.310;6.990;2023-03-21T05:37:55;101052.00;;;9.35;87.43
78685;BME280;68002;52.310;6.990;2023-03-21T05:40:20;101050.53;;;9.42;86.94
78685;BME280;68002;52.310;6.990;2023-03-21T05:42:46;101049.53;;;9.43;86.77
78685;BME280;68002;52.310;6.990;2023-03-21T05:45:12;101049.69;;;9.42;86.84
78685;BME280;68002;52.310;6.990;2023-03-21T05:47:37;101057.09;;;9.38;86.55
78685;BME280;68002;52.310;6.990;2023-03-21T05:50:03;101062.19;;;9.41;87.02
78685;BME280;68002;52.310;6.990;2023-03-21T05:52:28;101066.69;;;9.41;86.53
78685;BME280;68002;52.310;6.990;2023-03-21T05:54:54;101055.41;;;9.37;86.76
78685;BME280;68002;52.310;6.990;2023-03-21T05:57:19;101057.81;;;9.40;86.19
78685;BME280;68002;52.310;6.990;2023-03-21T05:59:45;101054.81;;;9.34;86.05
78685;BME280;68002;52.310;6.990;2023-03-21T06:02:10;101058.91;;;9.38;86.54
78685;BME280;68002;52.310;6.990;2023-03-21T06:04:35;101056.22;;;9.38;86.39
78685;BME280;68002;52.310;6.990;2023-03-21T06:07:01;101057.34;;;9.35;86.19
78685;BME280;68002;52.310;6.990;2023-03-21T06:09:26;101051.16;;;9.35;86.48
78685;BME280;68002;52.310;6.990;2023-03-21T06:11:52;101054.41;;;9.38;86.02
78685;BME280;68002;52.310;6.990;2023-03-21T06:14:20;101061.84;;;9.35;86.96
78685;BME280;68002;52.310;6.990;2023-03-21T06:16:45;101055.91;;;9.31;86.32
78685;BME280;68002;52.310;6.990;2023-03-21T06:19:11;101061.50;;;9.28;86.53
78685;BME280;68002;52.310;6.990;2023-03-21T06:21:36;101062.09;;;9.32;85.92
78685;BME280;68002;52.310;6.990;2023-03-21T06:24:01;101067.44;;;9.32;86.71
78685;BME280;68002;52.310;6.990;2023-03-21T06:26:26;101069.38;;;9.30;87.00
78685;BME280;68002;52.310;6.990;2023-03-21T06:28:52;101061.50;;;9.28;86.33
78685;BME280;68002;52.310;6.990;2023-03-21T06:31:18;101068.41;;;9.31;86.21
78685;BME280;68002;52.310;6.990;2023-03-21T06:33:43;101058.94;;;9.27;86.68
78685;BME280;68002;52.310;6.990;2023-03-21T06:36:09;101067.06;;;9.25;86.32
78685;BME280;68002;52.310;6.990;2023-03-21T06:38:34;101068.78;;;9.26;86.29
78685;BME280;68002;52.310;6.990;2023-03-21T06:41:00;101070.72;;;9.24;87.16
78685;BME280;68002;52.310;6.990;2023-03-21T06:43:25;101064.19;;;9.17;88.13
78685;BME280;68002;52.310;6.990;2023-03-21T06:45:50;101071.47;;;9.15;87.40
78685;BME280;68002;52.310;6.990;2023-03-21T06:48:15;101071.22;;;9.18;87.71
78685;BME280;68002;52.310;6.990;2023-03-21T06:50:41;101074.00;;;9.17;87.84
78685;BME280;68002;52.310;6.990;2023-03-21T06:53:06;101067.47;;;9.21;87.43
78685;BME280;68002;52.310;6.990;2023-03-21T06:55:31;101064.06;;;9.19;87.62
78685;BME280;68002;52.310;6.990;2023-03-21T06:57:57;101069.66;;;9.16;88.48
78685;BME280;68002;52.310;6.990;2023-03-21T07:00:22;101067.34;;;9.22;88.29
78685;BME280;68002;52.310;6.990;2023-03-21T07:02:48;101070.72;;;9.24;88.38
78685;BME280;68002;52.310;6.990;2023-03-21T07:05:14;101066.13;;;9.26;87.65
78685;BME280;68002;52.310;6.990;2023-03-21T07:07:39;101061.72;;;9.25;87.95
78685;BME280;68002;52.310;6.990;2023-03-21T07:10:05;101075.09;;;9.25;88.04
78685;BME280;68002;52.310;6.990;2023-03-21T07:12:31;101062.84;;;9.23;88.61
78685;BME280;68002;52.310;6.990;2023-03-21T07:14:56;101067.31;;;9.33;87.95
78685;BME280;68002;52.310;6.990;2023-03-21T07:17:22;101052.50;;;9.29;87.72
78685;BME280;68002;52.310;6.990;2023-03-21T07:19:47;101061.97;;;9.33;87.73
78685;BME280;68002;52.310;6.990;2023-03-21T07:22:12;101066.09;;;9.37;87.57
78685;BME280;68002;52.310;6.990;2023-03-21T07:24:37;101067.19;;;9.35;87.74
78685;BME280;68002;52.310;6.990;2023-03-21T07:27:03;101057.50;;;9.34;88.31
78685;BME280;68002;52.310;6.990;2023-03-21T07:29:28;101061.56;;;9.38;88.20
78685;BME280;68002;52.310;6.990;2023-03-21T07:31:53;101062.19;;;9.41;88.05
78685;BME280;68002;52.310;6.990;2023-03-21T07:34:18;101064.16;;;9.39;88.44
78685;BME280;68002;52.310;6.990;2023-03-21T07:36:43;101065.81;;;9.40;87.51
78685;BME280;68002;52.310;6.990;2023-03-21T07:39:09;101063.03;;;9.42;87.69
78685;BME280;68002;52.310;6.990;2023-03-21T07:41:34;101067.53;;;9.41;87.92
78685;BME280;68002;52.310;6.990;2023-03-21T07:43:59;101068.22;;;9.43;88.58
78685;BME280;68002;52.310;6.990;2023-03-21T07:46:24;101065.81;;;9.40;88.08
78685;BME280;68002;52.310;6.990;2023-03-21T07:48:50;101067.41;;;9.43;88.64
78685;BME280;68002;52.310;6.990;2023-03-21T07:51:15;101063.75;;;9.44;88.39
78685;BME280;68002;52.310;6.990;2023-03-21T07:53:40;101073.56;;;9.43;89.08
78685;BME280;68002;52.310;6.990;2023-03-21T07:56:05;101067.41;;;9.43;89.10
78685;BME280;68002;52.310;6.990;2023-03-21T07:58:31;101067.53;;;9.41;88.89
78685;BME280;68002;52.310;6.990;2023-03-21T08:00:57;101064.72;;;9.43;88.18
78685;BME280;68002;52.310;6.990;2023-03-21T08:03:22;101066.69;;;9.41;89.20
78685;BME280;68002;52.310;6.990;2023-03-21T08:05:47;101072.34;;;9.47;88.93
78685;BME280;68002;52.310;6.990;2023-03-21T08:08:13;101074.28;;;9.45;89.32
78685;BME280;68002;52.310;6.990;2023-03-21T08:10:38;101067.72;;;9.49;88.54
78685;BME280;68002;52.310;6.990;2023-03-21T08:13:03;101070.41;;;9.49;89.71
78685;BME280;68002;52.310;6.990;2023-03-21T08:15:28;101072.72;;;9.54;88.62
78685;BME280;68002;52.310;6.990;2023-03-21T08:17:54;101062.34;;;9.60;88.28
78685;BME280;68002;52.310;6.990;2023-03-21T08:20:20;101061.00;;;9.66;88.09
78685;BME280;68002;52.310;6.990;2023-03-21T08:22:47;101059.78;;;9.70;88.84
78685;BME280;68002;52.310;6.990;2023-03-21T08:25:13;101065.31;;;9.78;88.51
78685;BME280;68002;52.310;6.990;2023-03-21T08:27:40;101066.88;;;9.80;88.68
78685;BME280;68002;52.310;6.990;2023-03-21T08:30:08;101051.56;;;9.82;88.05
78685;BME280;68002;52.310;6.990;2023-03-21T08:32:33;101049.50;;;9.86;87.80
78685;BME280;68002;52.310;6.990;2023-03-21T08:35:02;101045.84;;;9.87;88.21
78685;BME280;68002;52.310;6.990;2023-03-21T08:37:27;101050.66;;;9.93;88.02
78685;BME280;68002;52.310;6.990;2023-03-21T08:39:53;101047.75;;;9.96;87.87
78685;BME280;68002;52.310;6.990;2023-03-21T08:42:19;101045.97;;;10.06;87.55
78685;BME280;68002;52.310;6.990;2023-03-21T08:44:44;101039.53;;;10.08;87.49
78685;BME280;68002;52.310;6.990;2023-03-21T08:47:09;101043.25;;;10.17;87.49
78685;BME280;68002;52.310;6.990;2023-03-21T08:49:35;101044.28;;;10.26;87.13
78685;BME280;68002;52.310;6.990;2023-03-21T08:52:01;101046.59;;;10.30;86.94
78685;BME280;68002;52.310;6.990;2023-03-21T08:54:26;101043.50;;;10.35;86.17
78685;BME280;68002;52.310;6.990;2023-03-21T08:56:51;101036.91;;;10.39;85.76
78685;BME280;68002;52.310;6.990;2023-03-21T08:59:16;101022.72;;;10.38;86.40
78685;BME280;68002;52.310;6.990;2023-03-21T09:01:42;101045.19;;;10.56;85.86
78685;BME280;68002;52.310;6.990;2023-03-21T09:04:07;101037.31;;;10.64;85.15
78685;BME280;68002;52.310;6.990;2023-03-21T09:06:32;101042.13;;;10.70;84.70
78685;BME280;68002;52.310;6.990;2023-03-21T09:08:58;101043.41;;;10.76;84.75
78685;BME280;68002;52.310;6.990;2023-03-21T09:11:23;101038.50;;;10.81;84.03
78685;BME280;68002;52.310;6.990;2023-03-21T09:13:48;101039.25;;;10.92;84.25
78685;BME280;68002;52.310;6.990;2023-03-21T09:16:13;101039.69;;;10.97;83.78
78685;BME280;68002;52.310;6.990;2023-03-21T09:18:39;101031.41;;;11.00;82.92
78685;BME280;68002;52.310;6.990;2023-03-21T09:21:08;101043.38;;;11.06;83.51
78685;BME280;68002;52.310;6.990;2023-03-21T09:23:33;101043.50;;;11.04;83.34
78685;BME280;68002;52.310;6.990;2023-03-21T09:25:58;101045.22;;;11.05;83.08
78685;BME280;68002;52.310;6.990;2023-03-21T09:28:24;101029.72;;;11.09;83.45
78685;BME280;68002;52.310;6.990;2023-03-21T09:30:49;101031.69;;;11.07;82.60
78685;BME280;68002;52.310;6.990;2023-03-21T09:33:14;101029.84;;;11.07;81.82
78685;BME280;68002;52.310;6.990;2023-03-21T09:35:39;101032.38;;;10.99;81.98
78685;BME280;68002;52.310;6.990;2023-03-21T09:38:04;101028.56;;;11.02;82.30
78685;BME280;68002;52.310;6.990;2023-03-21T09:46:21;101027.03;;;11.09;81.72
78685;BME280;68002;52.310;6.990;2023-03-21T09:49:06;101030.00;;;11.06;81.95
78685;BME280;68002;52.310;6.990;2023-03-21T09:51:39;101027.88;;;11.09;81.71
78685;BME280;68002;52.310;6.990;2023-03-21T09:54:21;101024.66;;;11.06;81.94
78685;BME280;68002;52.310;6.990;2023-03-21T09:56:48;101021.97;;;11.06;81.70
78685;BME280;68002;52.310;6.990;2023-03-21T09:59:21;101023.94;;;11.04;81.40
78685;BME280;68002;52.310;6.990;2023-03-21T10:01:49;101021.38;;;11.02;81.16
78685;BME280;68002;52.310;6.990;2023-03-21T10:04:15;101024.63;;;10.96;80.23
78685;BME280;68002;52.310;6.990;2023-03-21T10:06:42;101024.47;;;10.98;80.91
78685;BME280;68002;52.310;6.990;2023-03-21T10:09:14;101020.38;;;10.94;79.66
78685;BME280;68002;52.310;6.990;2023-03-21T10:11:50;101023.44;;;10.80;81.30
78685;BME280;68002;52.310;6.990;2023-03-21T10:14:34;101022.53;;;10.70;82.79
78685;BME280;68002;52.310;6.990;2023-03-21T10:17:08;101016.75;;;10.65;81.96
78685;BME280;68002;52.310;6.990;2023-03-21T10:19:41;101018.44;;;10.66;81.54
78685;BME280;68002;52.310;6.990;2023-03-21T10:22:07;101009.59;;;10.65;82.80
78685;BME280;68002;52.310;6.990;2023-03-21T10:24:33;101002.13;;;10.69;82.34
78685;BME280;68002;52.310;6.990;2023-03-21T10:26:59;101010.16;;;10.69;83.07
78685;BME280;68002;52.310;6.990;2023-03-21T10:29:28;101006.50;;;10.70;83.75
78685;BME280;68002;52.310;6.990;2023-03-21T10:31:55;101007.34;;;10.70;83.32
78685;BME280;68002;52.310;6.990;2023-03-21T10:34:31;101009.75;;;10.73;83.86
78685;BME280;68002;52.310;6.990;2023-03-21T10:36:59;101005.38;;;10.72;83.27
78685;BME280;68002;52.310;6.990;2023-03-21T10:39:40;100994.81;;;10.71;83.81
78685;BME280;68002;52.310;6.990;2023-03-21T10:42:17;100996.13;;;10.76;83.67
78685;BME280;68002;52.310;6.990;2023-03-21T10:44:46;100991.75;;;10.85;83.26
78685;BME280;68002;52.310;6.990;2023-03-21T10:47:18;100989.50;;;10.90;83.67
78685;BME280;68002;52.310;6.990;2023-03-21T10:49:46;100979.66;;;10.90;83.81
78685;BME280;68002;52.310;6.990;2023-03-21T10:52:13;100978.25;;;10.96;83.76
78685;BME280;68002;52.310;6.990;2023-03-21T10:54:39;100978.41;;;10.94;83.08
78685;BME280;68002;52.310;6.990;2023-03-21T10:57:10;100974.59;;;10.97;83.84
78685;BME280;68002;52.310;6.990;2023-03-21T11:02:17;100966.44;;;11.08;82.70
78685;BME280;68002;52.310;6.990;2023-03-21T11:04:43;100962.94;;;11.07;83.12
78685;BME280;68002;52.310;6.990;2023-03-21T11:07:12;100964.06;;;11.14;83.37
78685;BME280;68002;52.310;6.990;2023-03-21T11:12:28;100969.28;;;11.16;83.61
78685;BME280;68002;52.310;6.990;2023-03-21T11:14:53;100958.97;;;11.11;82.94
78685;BME280;68002;52.310;6.990;2023-03-21T11:17:21;100960.41;;;11.06;82.77
78685;BME280;68002;52.310;6.990;2023-03-21T11:22:13;100954.19;;;11.05;83.15
78685;BME280;68002;52.310;6.990;2023-03-21T11:24:40;100932.47;;;10.99;83.31
78685;BME280;68002;52.310;6.990;2023-03-21T11:27:06;100936.88;;;11.09;83.05
78685;BME280;68002;52.310;6.990;2023-03-21T11:29:36;100918.00;;;11.11;83.42
78685;BME280;68002;52.310;6.990;2023-03-21T11:32:22;100924.47;;;11.18;83.29
78685;BME280;68002;52.310;6.990;2023-03-21T11:34:51;100920.22;;;11.15;83.63
78685;BME280;68002;52.310;6.990;2023-03-21T11:37:36;100921.94;;;11.26;83.28
78685;BME280;68002;52.310;6.990;2023-03-21T11:42:45;100918.13;;;11.38;82.32
78685;BME280;68002;52.310;6.990;2023-03-21T11:45:13;100918.53;;;11.43;82.91
78685;BME280;68002;52.310;6.990;2023-03-21T11:47:38;100916.13;;;11.50;82.71
78685;BME280;68002;52.310;6.990;2023-03-21T11:50:26;100917.50;;;11.54;82.62
78685;BME280;68002;52.310;6.990;2023-03-21T11:53:04;100916.09;;;11.59;82.17
78685;BME280;68002;52.310;6.990;2023-03-21T11:58:35;100906.66;;;11.74;82.14
78685;BME280;68002;52.310;6.990;2023-03-21T12:03:46;100901.13;;;11.85;81.05
78685;BME280;68002;52.310;6.990;2023-03-21T12:06:36;100890.94;;;11.98;80.80
78685;BME280;68002;52.310;6.990;2023-03-21T12:09:23;100888.22;;;12.08;80.55
78685;BME280;68002;52.310;6.990;2023-03-21T12:11:57;100885.19;;;12.21;80.63
78685;BME280;68002;52.310;6.990;2023-03-21T12:17:31;100884.53;;;12.36;79.28
78685;BME280;68002;52.310;6.990;2023-03-21T12:25:49;100881.09;;;12.44;78.25
78685;BME280;68002;52.310;6.990;2023-03-21T12:31:21;100874.28;;;12.32;77.18
78685;BME280;68002;52.310;6.990;2023-03-21T12:36:32;100868.00;;;12.41;76.57
78685;BME280;68002;52.310;6.990;2023-03-21T12:39:24;100855.50;;;12.32;74.79
78685;BME280;68002;52.310;6.990;2023-03-21T12:42:11;100860.06;;;12.22;75.87
78685;BME280;68002;52.310;6.990;2023-03-21T12:44:46;100868.09;;;12.22;76.30
78685;BME280;68002;52.310;6.990;2023-03-21T12:47:17;100858.22;;;12.22;76.15
78685;BME280;68002;52.310;6.990;2023-03-21T12:50:14;100851.88;;;12.23;76.28
78685;BME280;68002;52.310;6.990;2023-03-21T12:52:45;100850.72;;;12.26;75.80
78685;BME280;68002;52.310;6.990;2023-03-21T12:55:23;100841.78;;;12.35;75.72
78685;BME280;68002;52.310;6.990;2023-03-21T12:58:03;100835.72;;;12.33;75.47
78685;BME280;68002;52.310;6.990;2023-03-21T13:00:37;100826.63;;;12.43;75.94
78685;BME280;68002;52.310;6.990;2023-03-21T13:03:12;100838.81;;;12.55;76.60
78685;BME280;68002;52.310;6.990;2023-03-21T13:05:47;100834.09;;;12.67;75.11
78685;BME280;68002;52.310;6.990;2023-03-21T13:10:46;100819.19;;;12.90;73.60
78685;BME280;68002;52.310;6.990;2023-03-21T13:18:47;100818.31;;;13.42;70.99
78685;BME280;68002;52.310;6.990;2023-03-21T13:21:40;100814.72;;;13.59;69.88
78685;BME280;68002;52.310;6.990;2023-03-21T13:24:24;100814.16;;;13.48;70.42
78685;BME280;68002;52.310;6.990;2023-03-21T13:27:12;100813.06;;;13.41;69.14
78685;BME280;68002;52.310;6.990;2023-03-21T13:29:48;100800.91;;;13.29;69.42
78685;BME280;68002;52.310;6.990;2023-03-21T13:32:35;100804.44;;;13.03;67.71
78685;BME280;68002;52.310;6.990;2023-03-21T13:37:34;100803.41;;;12.87;68.72
78685;BME280;68002;52.310;6.990;2023-03-21T13:40:20;100806.09;;;12.87;69.04
78685;BME280;68002;52.310;6.990;2023-03-21T13:42:51;100806.78;;;12.89;69.52
78685;BME280;68002;52.310;6.990;2023-03-21T13:45:50;100794.88;;;12.91;68.94
78685;BME280;68002;52.310;6.990;2023-03-21T13:51:13;100803.41;;;12.87;68.89
78685;BME280;68002;52.310;6.990;2023-03-21T13:53:58;100798.97;;;12.78;69.35
78685;BME280;68002;52.310;6.990;2023-03-21T13:56:24;100786.25;;;12.80;68.86
78685;BME280;68002;52.310;6.990;2023-03-21T13:58:56;100794.66;;;12.85;68.47
78685;BME280;68002;52.310;6.990;2023-03-21T14:01:31;100795.13;;;12.80;68.54
78685;BME280;68002;52.310;6.990;2023-03-21T14:06:36;100780.88;;;12.80;68.95
78685;BME280;68002;52.310;6.990;2023-03-21T14:09:03;100784.22;;;12.82;68.20
78685;BME280;68002;52.310;6.990;2023-03-21T14:11:30;100777.34;;;12.79;68.60
78685;BME280;68002;52.310;6.990;2023-03-21T14:13:58;100771.72;;;12.90;68.51
78685;BME280;68002;52.310;6.990;2023-03-21T14:16:25;100777.81;;;13.00;68.35
78685;BME280;68002;52.310;6.990;2023-03-21T14:19:03;100775.41;;;13.07;68.60
78685;BME280;68002;52.310;6.990;2023-03-21T14:21:32;100768.47;;;13.22;67.91
78685;BME280;68002;52.310;6.990;2023-03-21T14:24:04;100757.72;;;13.22;67.69
78685;BME280;68002;52.310;6.990;2023-03-21T14:26:33;100753.34;;;13.21;67.09